KBNO 220309Z 2203/2224 31011G19KT 6SM -RA OVC035
From batch tds/tafs/production/2024/5/22/h03_m20_tafs.cache.xml.gz
Issued (about 2 months ago)
Forecasts KBNO 220309Z 2203/2224 31011G19KT 6SM -RA OVC035
FM220900 27011KT P6SM VCSH BKN050
FM221400 28024G34KT P6SM VCSH BKN050
TAF PHNG 2203/2303 09012KT 9999 BKN030 BKN040 QNH2998INS
From batch tds/tafs/production/2024/5/22/h03_m20_tafs.cache.xml.gz
Issued (about 2 months ago)
Forecasts TAF PHNG 2203/2303 09012KT 9999 BKN030 BKN040 QNH2998INS
TEMPO 2209/2215 10012G22KT 6000 -SHRA BR BKN020 BKN035
FM221800 09012G22KT 9999 SCT020 BKN030 BKN045 QNH3003INS
TEMPO 2221/2300 09015G23KT 8000 -SHRA BR BKN025 BKN030 T22/2215Z T30/2300Z
TAF RJOI 2203/2303 VRB06KT 9999 BKN180 BKN250 QNH2996INS
From batch tds/tafs/production/2024/5/22/h03_m20_tafs.cache.xml.gz
Issued (about 2 months ago)
Forecasts TAF RJOI 2203/2303 VRB06KT 9999 BKN180 BKN250 QNH2996INS
FM220600 VRB06KT 9999 FEW030 BKN140 BKN200 QNH2994INS
FM221200 VRB06KT 9999 FEW030 BKN120 OVC160 QNH2993INS
FM221600 VRB06KT 9999 FEW015 BKN100 OVC140 621409 622304 QNH2989INS
FM222000 VRB06KT 9999 -SHRA FEW015 BKN060 OVC100 621409 622304 512406 QNH2984INS
FM230100 08008KT 9999 -SHRA FEW020 SCT050 OVC080 621403 512406 QNH2981INS T23/2206Z T19/2221Z
TAF AMD LDOS 220308Z 2203/2300 VRB02KT 0200 FG VV001 TX26/2213Z TN13/2203Z
From batch tds/tafs/production/2024/5/22/h03_m20_tafs.cache.xml.gz
Issued (about 2 months ago)
Forecasts TAF AMD LDOS 220308Z 2203/2300 VRB02KT 0200 FG VV001 TX26/2213Z TN13/2203Z
BECMG 2205/2207 CAVOK
PROB30
TEMPO 2213/2218 32015KT TSRA FEW035CB SCT040
TAF AMD UACK 220308Z 2203/2212 24008MPS 9999 SCT040 BKN100
From batch tds/tafs/production/2024/5/22/h03_m20_tafs.cache.xml.gz
Issued (about 2 months ago)
Forecasts TAF AMD UACK 220308Z 2203/2212 24008MPS 9999 SCT040 BKN100
TEMPO 2203/2212 30008G13MPS
KSNY 220308Z 2203/2224 33015G25KT P6SM VCTS BKN050CB
From batch tds/tafs/production/2024/5/22/h03_m20_tafs.cache.xml.gz
Issued (about 2 months ago)
Forecasts KSNY 220308Z 2203/2224 33015G25KT P6SM VCTS BKN050CB
TEMPO 2203/2204 4SM RA BKN040
FM220400 28008KT P6SM BKN100
FM220900 28008KT P6SM SKC
FM221700 22011G20KT P6SM SKC AMD NOT SKED
KMKE 220307Z 2203/2306 19018G30KT P6SM OVC060 WS020/20050KT
From batch tds/tafs/production/2024/5/22/h03_m20_tafs.cache.xml.gz
Issued (about 2 months ago)
Forecasts KMKE 220307Z 2203/2306 19018G30KT P6SM OVC060 WS020/20050KT
FM220400 20018G30KT 6SM -TSRA BR OVC060CB WS020/20050KT
TEMPO 2204/2206 22020G40KT 2SM TSRA BR OVC035CB
FM220600 21018G30KT P6SM BKN060 WS020/20050KT
FM220800 23018G30KT P6SM BKN035
FM221200 25013G25KT P6SM BKN015
FM230100 26008KT P6SM SKC
KHQM 220307Z 2203/2224 29011KT 4SM BR BKN006 OVC015
From batch tds/tafs/production/2024/5/22/h03_m20_tafs.cache.xml.gz
Issued (about 2 months ago)
Forecasts KHQM 220307Z 2203/2224 29011KT 4SM BR BKN006 OVC015
FM220900 27019G27KT P6SM SCT020 OVC035
FM221500 28015G23KT 6SM BR OVC009
FM222100 28018G25KT P6SM BKN035
KCMI 220307Z 2203/2224 19020G30KT P6SM VCTS BKN050CB
From batch tds/tafs/production/2024/5/22/h03_m20_tafs.cache.xml.gz
Issued (about 2 months ago)
Forecasts KCMI 220307Z 2203/2224 19020G30KT P6SM VCTS BKN050CB
TEMPO 2203/2205 VRB20G40KT 3SM TSRA BKN030CB
FM220600 24013KT P6SM SCT025
FM221300 25012KT P6SM SCT040
TAF KNCA 2203/2303 00000KT 9999 SKC QNH3001INS
From batch tds/tafs/production/2024/5/22/h03_m20_tafs.cache.xml.gz
Issued (about 2 months ago)
Forecasts TAF KNCA 2203/2303 00000KT 9999 SKC QNH3001INS
BECMG 2206/2208 VRB04KT 0800 FG BKN002 QNH3002INS
FM221300 VRB04KT 9999 SCT025 QNH3003INS
BECMG 2217/2219 VRB06KT 9999 SCT045 QNH2998INS T17/2209Z T28/2220Z
TAF COR FYLZ 220306Z 2203/2212 16006KT 9999 BKN015
From batch tds/tafs/production/2024/5/22/h03_m20_tafs.cache.xml.gz
Issued (about 2 months ago)
Forecasts TAF COR FYLZ 220306Z 2203/2212 16006KT 9999 BKN015
BECMG 2207/2209 CAVOK
TAF COR FYGF 220306Z 2203/2212 00000KT CAVOK
From batch tds/tafs/production/2024/5/22/h03_m20_tafs.cache.xml.gz
Issued (about 2 months ago)
Forecasts TAF COR FYGF 220306Z 2203/2212 00000KT CAVOK
BECMG 2208/2210 10010KT
TAF COR FYWE 220306Z 2203/2212 10012KT CAVOK
From batch tds/tafs/production/2024/5/22/h03_m20_tafs.cache.xml.gz
Issued (about 2 months ago)
Forecasts TAF COR FYWE 220306Z 2203/2212 10012KT CAVOK
TAF AMD CYDQ 220306Z 2203/2205 06006KT P6SM SCT040 OVC100
From batch tds/tafs/production/2024/5/22/h03_m20_tafs.cache.xml.gz
Issued (about 2 months ago)
Forecasts TAF AMD CYDQ 220306Z 2203/2205 06006KT P6SM SCT040 OVC100
TEMPO 2203/2205 P6SM VCSH BKN040 OVC080 RMK FCST BASED ON AUTO OBS. NXT FCST BY 221300Z
KSBM 220306Z 2203/2224 23014G28KT 6SM -TSRA BR OVC060CB WS020/22050KT
From batch tds/tafs/production/2024/5/22/h03_m20_tafs.cache.xml.gz
Issued (about 2 months ago)
Forecasts KSBM 220306Z 2203/2224 23014G28KT 6SM -TSRA BR OVC060CB WS020/22050KT
TEMPO 2203/2206 22025G45KT 2SM TSRA BR OVC035CB
FM220800 22017G29KT P6SM BKN025 WS020/23040KT
FM221000 24016G29KT P6SM BKN015
FM221700 26016G26KT P6SM SCT040
TAF COR FYKM 220306Z 2203/2212 00000KT CAVOK
From batch tds/tafs/production/2024/5/22/h03_m20_tafs.cache.xml.gz
Issued (about 2 months ago)
Forecasts TAF COR FYKM 220306Z 2203/2212 00000KT CAVOK
BECMG 2207/2209 08006KT
TAF COR FYRU 220306Z 2203/2212 10003KT CAVOK
From batch tds/tafs/production/2024/5/22/h03_m20_tafs.cache.xml.gz
Issued (about 2 months ago)
Forecasts TAF COR FYRU 220306Z 2203/2212 10003KT CAVOK
TAF COR FYOA 220306Z 2203/2212 08003KT CAVOK
From batch tds/tafs/production/2024/5/22/h03_m20_tafs.cache.xml.gz
Issued (about 2 months ago)
Forecasts TAF COR FYOA 220306Z 2203/2212 08003KT CAVOK
BECMG 2208/2210 07013KT
TAF AMD KSKA 220305Z 2203/2309 21012KT 9000 -SHRA BR SCT009 BKN025 OVC030 610409 QNH2981INS
From batch tds/tafs/production/2024/5/22/h03_m20_tafs.cache.xml.gz
Issued (about 2 months ago)
Forecasts TAF AMD KSKA 220305Z 2203/2309 21012KT 9000 -SHRA BR SCT009 BKN025 OVC030 610409 QNH2981INS
BECMG 2204/2206 19009KT 9999 NSW FEW009 BKN025 OVC050 620259 QNH2970INS
BECMG 2210/2211 20012KT 9999 SCT020 BKN050 620505 QNH2967INS
BECMG 2218/2219 19010KT 9000 -SHRA FEW020 BKN045 BKN100 610454 QNH2974INS TX13/2223Z TN06/2212Z
TAF AMD GCXO 220305Z 2203/2303 33013KT 9999 BKN020 TX20/2214Z TN14/2206Z
From batch tds/tafs/production/2024/5/22/h03_m20_tafs.cache.xml.gz
Issued (about 2 months ago)
Forecasts TAF AMD GCXO 220305Z 2203/2303 33013KT 9999 BKN020 TX20/2214Z TN14/2206Z
PROB40
TEMPO 2203/2209 BKN010
PROB40
TEMPO 2212/2221 33018G28KT
TEMPO 2220/2303 BKN007
TAF AMD CYBW 220305Z 2203/2204 VRB03KT P6SM SCT050 SCT120
From batch tds/tafs/production/2024/5/22/h03_m20_tafs.cache.xml.gz
Issued (about 2 months ago)
Forecasts TAF AMD CYBW 220305Z 2203/2204 VRB03KT P6SM SCT050 SCT120
TEMPO 2203/2204 VRB12G22KT P6SM -TSRA BKN050CB OVC120 RMK FCST BASED ON AUTO OBS. NXT FCST BY 221200Z
TAF AMD CYYC 220305Z 2203/2224 VRB15G25KT 6SM -TSRA BR BKN030CB OVC080
From batch tds/tafs/production/2024/5/22/h03_m20_tafs.cache.xml.gz
Issued (about 2 months ago)
Forecasts TAF AMD CYYC 220305Z 2203/2224 VRB15G25KT 6SM -TSRA BR BKN030CB OVC080
FM220320 10012KT P6SM VCSH BKN080 OVC120
TEMPO 2203/2204 VRB12G22KT P6SM -SHRA VCTS BKN060CB OVC080
FM220400 VRB03KT P6SM SCT080 BKN230
TEMPO 2204/2208 P6SM -SHRA BKN080 OVC230
BECMG 2204/2206 08006KT
FM220800 08006KT P6SM SCT012 OVC025
TEMPO 2208/2212 3SM -DZ BR SCT008 OVC012
FM221200 06008KT 6SM -RA BR SCT008 OVC012
TEMPO 2212/2216 2 1/2SM -RA BR BKN008 OVC012
PROB30 2212/2215 3/4SM -RA BR VV003
FM221600 05006KT 3SM -RA BR SCT008 OVC012
BECMG 2218/2220 05012KT
FM222100 05012G22KT 6SM -SHRA BR SCT020 BKN060
FM222300 03012G22KT P6SM -SHRA BKN060 RMK NXT FCST BY 220600Z
KBED 220305Z 2203/2224 20004KT P6SM SKC
From batch tds/tafs/production/2024/5/22/h03_m20_tafs.cache.xml.gz
Issued (about 2 months ago)
Forecasts KBED 220305Z 2203/2224 20004KT P6SM SKC
FM221300 23006KT P6SM SKC
FM221900 23010KT P6SM SKC
KBDL 220305Z 2203/2306 17006KT P6SM FEW080 BKN250
From batch tds/tafs/production/2024/5/22/h03_m20_tafs.cache.xml.gz
Issued (about 2 months ago)
Forecasts KBDL 220305Z 2203/2306 17006KT P6SM FEW080 BKN250
FM221400 20006KT P6SM FEW250
FM222100 19011KT P6SM FEW250
KBAF 220305Z 2203/2224 16005KT P6SM SKC
From batch tds/tafs/production/2024/5/22/h03_m20_tafs.cache.xml.gz
Issued (about 2 months ago)
Forecasts KBAF 220305Z 2203/2224 16005KT P6SM SKC
FM221500 21006KT P6SM SKC
FM222000 21010KT P6SM SKC
talk